RYR1AZ LIRP-LICA
Flight info
| Callsign | RYR1AZ |
|---|---|
| Flight time | 1h 0m |
| Altitude | 35000 |
| Route | DOCME M729 ELB DCT MEDAL DCT TORLI DCT PNZ DCT POLIT M620 ARBUM |
| Aircraft | B738/M-SDE2E3FGHIRWXY/S |
Departure
| Time | 2026-05-08 17:04 |
|---|---|
| Airport | Pisa International Airport (LIRP) |
Arrival
| Time | 2026-05-08 18:04 |
|---|---|
| Airport | Lamezia Terme Sant'Eufemia International Airport (LICA) |
| Time | Latitude | Longitude | Altitude | Speed | Heading |
|---|---|---|---|---|---|
| 2026-05-08 16:40 | 43.69767 | 10.39863 | 10 ft | 0 kts | 9° |
| 2026-05-08 16:52 | 43.69760 | 10.39861 | 10 ft | 4 kts | 8° |
| 2026-05-08 16:53 | 43.69708 | 10.39863 | 10 ft | 4 kts | 320° |
| 2026-05-08 16:53 | 43.69700 | 10.39885 | 14 ft | 4 kts | 279° |
| 2026-05-08 16:53 | 43.69696 | 10.39910 | 10 ft | 0 kts | 277° |
| 2026-05-08 16:57 | 43.69697 | 10.39900 | 10 ft | 3 kts | 277° |
| 2026-05-08 16:58 | 43.69700 | 10.39847 | 12 ft | 7 kts | 263° |
| 2026-05-08 16:58 | 43.69668 | 10.39806 | 10 ft | 7 kts | 195° |
| 2026-05-08 16:58 | 43.69623 | 10.39793 | 10 ft | 7 kts | 189° |
| 2026-05-08 16:58 | 43.69578 | 10.39784 | 10 ft | 7 kts | 188° |
| 2026-05-08 16:59 | 43.69516 | 10.39771 | 10 ft | 10 kts | 186° |
| 2026-05-08 16:59 | 43.69468 | 10.39828 | 10 ft | 10 kts | 104° |
| 2026-05-08 16:59 | 43.69418 | 10.39885 | 10 ft | 10 kts | 168° |
| 2026-05-08 16:59 | 43.69392 | 10.39890 | 10 ft | 0 kts | 171° |
| 2026-05-08 17:00 | 43.69360 | 10.39896 | 12 ft | 8 kts | 173° |
| 2026-05-08 17:00 | 43.69298 | 10.39905 | 11 ft | 9 kts | 174° |
| 2026-05-08 17:00 | 43.69241 | 10.39927 | 10 ft | 9 kts | 137° |
| 2026-05-08 17:00 | 43.69254 | 10.39999 | 9 ft | 10 kts | 39° |
| 2026-05-08 17:01 | 43.69321 | 10.40070 | 9 ft | 14 kts | 37° |
| 2026-05-08 17:01 | 43.69355 | 10.40156 | 9 ft | 10 kts | 120° |
| 2026-05-08 17:01 | 43.69332 | 10.40201 | 10 ft | 0 kts | 127° |
| 2026-05-08 17:02 | 43.69322 | 10.40220 | 9 ft | 5 kts | 127° |
| 2026-05-08 17:02 | 43.69294 | 10.40269 | 9 ft | 8 kts | 127° |
| 2026-05-08 17:02 | 43.69279 | 10.40328 | 9 ft | 3 kts | 116° |
| 2026-05-08 17:02 | 43.69256 | 10.40327 | 7 ft | 4 kts | 202° |
| 2026-05-08 17:03 | 43.69251 | 10.40322 | 7 ft | 0 kts | 209° |
| 2026-05-08 17:03 | 43.69248 | 10.40321 | 7 ft | 2 kts | 210° |
| 2026-05-08 17:03 | 43.69181 | 10.40254 | 7 ft | 35 kts | 217° |
| 2026-05-08 17:03 | 43.68793 | 10.39850 | 8 ft | 103 kts | 217° |
| 2026-05-08 17:04 | 43.68059 | 10.39079 | 8 ft | 160 kts | 220° |
| 2026-05-08 17:04 | 43.67127 | 10.38070 | 475 ft | 171 kts | 220° |
| 2026-05-08 17:04 | 43.66200 | 10.37034 | 1161 ft | 176 kts | 220° |
| 2026-05-08 17:04 | 43.65196 | 10.35908 | 1585 ft | 200 kts | 218° |
| 2026-05-08 17:05 | 43.64056 | 10.34637 | 1889 ft | 219 kts | 219° |
| 2026-05-08 17:05 | 43.62851 | 10.33286 | 2287 ft | 229 kts | 218° |
| 2026-05-08 17:05 | 43.61590 | 10.31864 | 2827 ft | 235 kts | 218° |
| 2026-05-08 17:05 | 43.60326 | 10.30430 | 3624 ft | 237 kts | 218° |
| 2026-05-08 17:06 | 43.58996 | 10.28923 | 4016 ft | 260 kts | 218° |
| 2026-05-08 17:06 | 43.57561 | 10.27301 | 4637 ft | 270 kts | 218° |
| 2026-05-08 17:06 | 43.56093 | 10.25648 | 5426 ft | 274 kts | 218° |
| 2026-05-08 17:06 | 43.54601 | 10.23969 | 6205 ft | 278 kts | 219° |
| 2026-05-08 17:07 | 43.53095 | 10.22274 | 7006 ft | 281 kts | 218° |
| 2026-05-08 17:07 | 43.51577 | 10.20567 | 7788 ft | 283 kts | 218° |
| 2026-05-08 17:07 | 43.50003 | 10.18940 | 8603 ft | 283 kts | 206° |
| 2026-05-08 17:07 | 43.48094 | 10.18399 | 9331 ft | 285 kts | 173° |
| 2026-05-08 17:08 | 43.46162 | 10.19042 | 10092 ft | 288 kts | 163° |
| 2026-05-08 17:08 | 43.44228 | 10.19874 | 10630 ft | 298 kts | 163° |
| 2026-05-08 17:08 | 43.42156 | 10.20715 | 10803 ft | 322 kts | 165° |
| 2026-05-08 17:08 | 43.39960 | 10.21522 | 10974 ft | 343 kts | 166° |
| 2026-05-08 17:09 | 43.37579 | 10.22316 | 11247 ft | 360 kts | 167° |
| 2026-05-08 17:09 | 43.35111 | 10.23073 | 11847 ft | 365 kts | 168° |
| 2026-05-08 17:09 | 43.32623 | 10.23794 | 12548 ft | 367 kts | 169° |
| 2026-05-08 17:09 | 43.30102 | 10.24496 | 13257 ft | 370 kts | 169° |
| 2026-05-08 17:10 | 43.27568 | 10.25185 | 13934 ft | 373 kts | 169° |
| 2026-05-08 17:10 | 43.25000 | 10.25874 | 14510 ft | 377 kts | 170° |
| 2026-05-08 17:10 | 43.22406 | 10.26565 | 15056 ft | 382 kts | 170° |
| 2026-05-08 17:10 | 43.19775 | 10.27264 | 15612 ft | 387 kts | 170° |
| 2026-05-08 17:11 | 43.17112 | 10.27970 | 16154 ft | 391 kts | 170° |
| 2026-05-08 17:11 | 43.14423 | 10.28682 | 16649 ft | 397 kts | 170° |
| 2026-05-08 17:11 | 43.11674 | 10.29409 | 17020 ft | 406 kts | 171° |
| 2026-05-08 17:11 | 43.08876 | 10.30149 | 17414 ft | 413 kts | 171° |
| 2026-05-08 17:12 | 43.06029 | 10.30901 | 17854 ft | 419 kts | 171° |
| 2026-05-08 17:12 | 43.03187 | 10.31653 | 18344 ft | 423 kts | 171° |
| 2026-05-08 17:12 | 43.00283 | 10.32420 | 18808 ft | 426 kts | 171° |
| 2026-05-08 17:12 | 42.97361 | 10.33191 | 19278 ft | 428 kts | 171° |
| 2026-05-08 17:13 | 42.94422 | 10.33966 | 19744 ft | 430 kts | 172° |
| 2026-05-08 17:13 | 42.91468 | 10.34743 | 20201 ft | 433 kts | 172° |
| 2026-05-08 17:13 | 42.88497 | 10.35525 | 20617 ft | 437 kts | 172° |
| 2026-05-08 17:13 | 42.85498 | 10.36313 | 21023 ft | 440 kts | 172° |
| 2026-05-08 17:14 | 42.82478 | 10.37106 | 21439 ft | 443 kts | 173° |
| 2026-05-08 17:14 | 42.79435 | 10.37904 | 21853 ft | 446 kts | 173° |
| 2026-05-08 17:14 | 42.76427 | 10.38766 | 22239 ft | 451 kts | 168° |
| 2026-05-08 17:14 | 42.73478 | 10.40370 | 22529 ft | 463 kts | 155° |
| 2026-05-08 17:15 | 42.70778 | 10.42841 | 22846 ft | 473 kts | 143° |
| 2026-05-08 17:15 | 42.68431 | 10.46024 | 23191 ft | 480 kts | 136° |
| 2026-05-08 17:15 | 42.66176 | 10.49393 | 23526 ft | 483 kts | 135° |
| 2026-05-08 17:15 | 42.63922 | 10.52797 | 23787 ft | 486 kts | 135° |
| 2026-05-08 17:16 | 42.61649 | 10.56215 | 24134 ft | 487 kts | 135° |
| 2026-05-08 17:16 | 42.59367 | 10.59616 | 24453 ft | 488 kts | 136° |
| 2026-05-08 17:16 | 42.57051 | 10.63031 | 24706 ft | 492 kts | 136° |
| 2026-05-08 17:16 | 42.54727 | 10.66434 | 24959 ft | 493 kts | 136° |
| 2026-05-08 17:17 | 42.52381 | 10.69852 | 25183 ft | 494 kts | 136° |
| 2026-05-08 17:17 | 42.50036 | 10.73262 | 25456 ft | 496 kts | 136° |
| 2026-05-08 17:17 | 42.47709 | 10.76640 | 25754 ft | 497 kts | 136° |
| 2026-05-08 17:17 | 42.45342 | 10.80072 | 26025 ft | 500 kts | 136° |
| 2026-05-08 17:18 | 42.42968 | 10.83513 | 26278 ft | 502 kts | 136° |
| 2026-05-08 17:18 | 42.40572 | 10.86983 | 26607 ft | 502 kts | 136° |
| 2026-05-08 17:18 | 42.38191 | 10.90428 | 27002 ft | 501 kts | 136° |
| 2026-05-08 17:18 | 42.35814 | 10.93865 | 27423 ft | 499 kts | 137° |
| 2026-05-08 17:19 | 42.33438 | 10.97296 | 27820 ft | 498 kts | 137° |
| 2026-05-08 17:19 | 42.31066 | 11.00715 | 28181 ft | 498 kts | 137° |
| 2026-05-08 17:19 | 42.28692 | 11.04133 | 28550 ft | 498 kts | 137° |
| 2026-05-08 17:19 | 42.26316 | 11.07550 | 28950 ft | 497 kts | 137° |
| 2026-05-08 17:20 | 42.23948 | 11.10952 | 29356 ft | 496 kts | 137° |
| 2026-05-08 17:20 | 42.21584 | 11.14344 | 29757 ft | 495 kts | 137° |
| 2026-05-08 17:20 | 42.19253 | 11.17685 | 30119 ft | 495 kts | 137° |
| 2026-05-08 17:20 | 42.16886 | 11.21073 | 30446 ft | 494 kts | 137° |
| 2026-05-08 17:21 | 42.14527 | 11.24446 | 30794 ft | 493 kts | 137° |
| 2026-05-08 17:21 | 42.12177 | 11.27804 | 31142 ft | 492 kts | 137° |
| 2026-05-08 17:21 | 42.09828 | 11.31156 | 31462 ft | 491 kts | 138° |
| 2026-05-08 17:21 | 42.07478 | 11.34505 | 31655 ft | 493 kts | 138° |
| 2026-05-08 17:22 | 42.05123 | 11.37855 | 31924 ft | 493 kts | 138° |
| 2026-05-08 17:22 | 42.02772 | 11.41198 | 32369 ft | 488 kts | 138° |
| 2026-05-08 17:22 | 42.00449 | 11.44499 | 32852 ft | 483 kts | 139° |
| 2026-05-08 17:22 | 41.98182 | 11.47718 | 33279 ft | 479 kts | 139° |
| 2026-05-08 17:23 | 41.95892 | 11.50962 | 33632 ft | 478 kts | 139° |
| 2026-05-08 17:23 | 41.93603 | 11.54201 | 33886 ft | 478 kts | 139° |
| 2026-05-08 17:23 | 41.91311 | 11.57440 | 34124 ft | 478 kts | 139° |
| 2026-05-08 17:23 | 41.89022 | 11.60672 | 34360 ft | 477 kts | 139° |
| 2026-05-08 17:24 | 41.86731 | 11.63903 | 34585 ft | 477 kts | 139° |
| 2026-05-08 17:24 | 41.84436 | 11.67137 | 34792 ft | 477 kts | 139° |
| 2026-05-08 17:24 | 41.82150 | 11.70357 | 34987 ft | 477 kts | 139° |
| 2026-05-08 17:24 | 41.79855 | 11.73583 | 34994 ft | 480 kts | 139° |
| 2026-05-08 17:25 | 41.75234 | 11.80071 | 35021 ft | 480 kts | 139° |
| 2026-05-08 17:25 | 41.70633 | 11.86522 | 35028 ft | 477 kts | 139° |
| 2026-05-08 17:26 | 41.66052 | 11.92927 | 35024 ft | 475 kts | 139° |
| 2026-05-08 17:26 | 41.61489 | 11.99293 | 35017 ft | 475 kts | 140° |
| 2026-05-08 17:27 | 41.56929 | 12.05632 | 35007 ft | 483 kts | 139° |
| 2026-05-08 17:27 | 41.52232 | 12.12151 | 35009 ft | 490 kts | 140° |
| 2026-05-08 17:28 | 41.47505 | 12.18707 | 35008 ft | 494 kts | 140° |
| 2026-05-08 17:28 | 41.43568 | 12.24165 | 34991 ft | 486 kts | 140° |
| 2026-05-08 17:29 | 41.38899 | 12.30621 | 35005 ft | 483 kts | 140° |
| 2026-05-08 17:29 | 41.34227 | 12.37057 | 35006 ft | 483 kts | 140° |
| 2026-05-08 17:30 | 41.29542 | 12.43495 | 34989 ft | 484 kts | 140° |
| 2026-05-08 17:30 | 41.24849 | 12.49932 | 35001 ft | 485 kts | 140° |
| 2026-05-08 17:31 | 41.20164 | 12.56346 | 35013 ft | 486 kts | 140° |
| 2026-05-08 17:31 | 41.15438 | 12.62802 | 35009 ft | 488 kts | 140° |
| 2026-05-08 17:32 | 41.10689 | 12.69276 | 35009 ft | 489 kts | 140° |
| 2026-05-08 17:32 | 41.05933 | 12.75746 | 34985 ft | 491 kts | 140° |
| 2026-05-08 17:33 | 41.01197 | 12.82175 | 35003 ft | 491 kts | 140° |
| 2026-05-08 17:33 | 40.96417 | 12.88650 | 35015 ft | 492 kts | 140° |
| 2026-05-08 17:34 | 40.91701 | 12.95231 | 35007 ft | 497 kts | 133° |
| 2026-05-08 17:34 | 40.88108 | 13.03004 | 35021 ft | 505 kts | 121° |
| 2026-05-08 17:35 | 40.84919 | 13.11284 | 35004 ft | 505 kts | 121° |
| 2026-05-08 17:35 | 40.81708 | 13.19554 | 35001 ft | 505 kts | 121° |
| 2026-05-08 17:36 | 40.78453 | 13.27765 | 34993 ft | 504 kts | 122° |
| 2026-05-08 17:36 | 40.75176 | 13.35948 | 34999 ft | 504 kts | 122° |
| 2026-05-08 17:37 | 40.71906 | 13.44089 | 35012 ft | 504 kts | 122° |
| 2026-05-08 17:37 | 40.68619 | 13.52256 | 34991 ft | 505 kts | 122° |
| 2026-05-08 17:38 | 40.65317 | 13.60442 | 35011 ft | 505 kts | 122° |
| 2026-05-08 17:38 | 40.62014 | 13.68612 | 35007 ft | 506 kts | 122° |
| 2026-05-08 17:39 | 40.58713 | 13.76751 | 35007 ft | 507 kts | 122° |
| 2026-05-08 17:39 | 40.55378 | 13.84954 | 35002 ft | 508 kts | 122° |
| 2026-05-08 17:40 | 40.52038 | 13.93145 | 34996 ft | 509 kts | 122° |
| 2026-05-08 17:40 | 40.48741 | 14.01210 | 34982 ft | 510 kts | 122° |
| 2026-05-08 17:41 | 40.45364 | 14.09448 | 34670 ft | 513 kts | 122° |
| 2026-05-08 17:41 | 40.43682 | 14.13543 | 34448 ft | 510 kts | 122° |
| 2026-05-08 17:41 | 40.41998 | 14.17642 | 34199 ft | 507 kts | 122° |
| 2026-05-08 17:42 | 40.40344 | 14.21659 | 33968 ft | 506 kts | 122° |
| 2026-05-08 17:42 | 40.38658 | 14.25744 | 33710 ft | 511 kts | 122° |
| 2026-05-08 17:42 | 40.36956 | 14.29859 | 33459 ft | 516 kts | 122° |
| 2026-05-08 17:42 | 40.35237 | 14.34011 | 33200 ft | 517 kts | 122° |
| 2026-05-08 17:43 | 40.33526 | 14.38146 | 32935 ft | 515 kts | 122° |
| 2026-05-08 17:43 | 40.31817 | 14.42271 | 32676 ft | 514 kts | 122° |
| 2026-05-08 17:43 | 40.30110 | 14.46384 | 32415 ft | 513 kts | 122° |
| 2026-05-08 17:43 | 40.28408 | 14.50478 | 32159 ft | 512 kts | 122° |
| 2026-05-08 17:44 | 40.26702 | 14.54576 | 31924 ft | 511 kts | 122° |
| 2026-05-08 17:44 | 40.25021 | 14.58607 | 31509 ft | 513 kts | 121° |
| 2026-05-08 17:44 | 40.23297 | 14.62735 | 30995 ft | 518 kts | 121° |
| 2026-05-08 17:44 | 40.21560 | 14.66888 | 30487 ft | 521 kts | 121° |
| 2026-05-08 17:45 | 40.19825 | 14.71038 | 29926 ft | 517 kts | 121° |
| 2026-05-08 17:45 | 40.18097 | 14.75165 | 29105 ft | 517 kts | 121° |
| 2026-05-08 17:45 | 40.16361 | 14.79281 | 28348 ft | 515 kts | 123° |
| 2026-05-08 17:45 | 40.14370 | 14.83150 | 27551 ft | 511 kts | 132° |
| 2026-05-08 17:46 | 40.12007 | 14.86579 | 26884 ft | 503 kts | 141° |
| 2026-05-08 17:46 | 40.09377 | 14.89574 | 26067 ft | 501 kts | 144° |
| 2026-05-08 17:46 | 40.06722 | 14.92494 | 25462 ft | 497 kts | 144° |
| 2026-05-08 17:46 | 40.04084 | 14.95395 | 24854 ft | 494 kts | 144° |
| 2026-05-08 17:47 | 40.01478 | 14.98283 | 24243 ft | 490 kts | 143° |
| 2026-05-08 17:47 | 39.98967 | 15.01089 | 23646 ft | 488 kts | 143° |
| 2026-05-08 17:47 | 39.96433 | 15.03938 | 22946 ft | 485 kts | 143° |
| 2026-05-08 17:47 | 39.94718 | 15.05871 | 22509 ft | 482 kts | 143° |
| 2026-05-08 17:48 | 39.91382 | 15.09633 | 21660 ft | 474 kts | 143° |
| 2026-05-08 17:48 | 39.88906 | 15.12425 | 21048 ft | 464 kts | 143° |
| 2026-05-08 17:48 | 39.86493 | 15.15141 | 20470 ft | 454 kts | 143° |
| 2026-05-08 17:48 | 39.84123 | 15.17804 | 19903 ft | 445 kts | 144° |
| 2026-05-08 17:49 | 39.81794 | 15.20414 | 19342 ft | 439 kts | 144° |
| 2026-05-08 17:49 | 39.79489 | 15.22993 | 18771 ft | 434 kts | 144° |
| 2026-05-08 17:49 | 39.77212 | 15.25540 | 18176 ft | 431 kts | 144° |
| 2026-05-08 17:49 | 39.74939 | 15.28076 | 17586 ft | 440 kts | 144° |
| 2026-05-08 17:50 | 39.72596 | 15.30690 | 16995 ft | 444 kts | 143° |
| 2026-05-08 17:50 | 39.70259 | 15.33300 | 16402 ft | 442 kts | 143° |
| 2026-05-08 17:50 | 39.67936 | 15.35894 | 15844 ft | 438 kts | 143° |
| 2026-05-08 17:50 | 39.65647 | 15.38448 | 15571 ft | 428 kts | 143° |
| 2026-05-08 17:51 | 39.63420 | 15.40934 | 15336 ft | 416 kts | 143° |
| 2026-05-08 17:51 | 39.61235 | 15.43368 | 14835 ft | 413 kts | 143° |
| 2026-05-08 17:51 | 39.59036 | 15.45808 | 14100 ft | 417 kts | 143° |
| 2026-05-08 17:51 | 39.56830 | 15.48255 | 13513 ft | 416 kts | 143° |
| 2026-05-08 17:52 | 39.54640 | 15.50685 | 13022 ft | 411 kts | 143° |
| 2026-05-08 17:52 | 39.52479 | 15.53082 | 12472 ft | 407 kts | 143° |
| 2026-05-08 17:52 | 39.48192 | 15.57830 | 11356 ft | 402 kts | 143° |
| 2026-05-08 17:53 | 39.45995 | 15.59929 | 10868 ft | 394 kts | 152° |
| 2026-05-08 17:53 | 39.43642 | 15.61716 | 10396 ft | 389 kts | 153° |
| 2026-05-08 17:53 | 39.41305 | 15.63438 | 10061 ft | 381 kts | 153° |
| 2026-05-08 17:53 | 39.39049 | 15.65104 | 9974 ft | 366 kts | 153° |
| 2026-05-08 17:54 | 39.36851 | 15.66739 | 9501 ft | 364 kts | 153° |
| 2026-05-08 17:54 | 39.34687 | 15.68361 | 9134 ft | 354 kts | 153° |
| 2026-05-08 17:54 | 39.32594 | 15.69940 | 8783 ft | 343 kts | 153° |
| 2026-05-08 17:54 | 39.30575 | 15.71468 | 8461 ft | 333 kts | 153° |
| 2026-05-08 17:55 | 39.28607 | 15.72960 | 8153 ft | 323 kts | 153° |
| 2026-05-08 17:55 | 39.26691 | 15.74412 | 7845 ft | 315 kts | 153° |
| 2026-05-08 17:55 | 39.24827 | 15.75824 | 7552 ft | 307 kts | 153° |
| 2026-05-08 17:55 | 39.23027 | 15.77189 | 7421 ft | 294 kts | 153° |
| 2026-05-08 17:56 | 39.21270 | 15.78518 | 7033 ft | 291 kts | 153° |
| 2026-05-08 17:56 | 39.19527 | 15.79835 | 6745 ft | 290 kts | 153° |
| 2026-05-08 17:56 | 39.17791 | 15.81147 | 6478 ft | 289 kts | 152° |
| 2026-05-08 17:56 | 39.16062 | 15.82453 | 6180 ft | 287 kts | 153° |
| 2026-05-08 17:57 | 39.14366 | 15.83734 | 5899 ft | 286 kts | 153° |
| 2026-05-08 17:57 | 39.12656 | 15.85025 | 5623 ft | 284 kts | 153° |
| 2026-05-08 17:57 | 39.10957 | 15.86307 | 5351 ft | 282 kts | 153° |
| 2026-05-08 17:57 | 39.09269 | 15.87580 | 5081 ft | 280 kts | 153° |
| 2026-05-08 17:58 | 39.07587 | 15.88848 | 4849 ft | 277 kts | 153° |
| 2026-05-08 17:58 | 39.05947 | 15.90086 | 4731 ft | 270 kts | 153° |
| 2026-05-08 17:58 | 39.04348 | 15.91290 | 4608 ft | 262 kts | 153° |
| 2026-05-08 17:58 | 39.02795 | 15.92460 | 4496 ft | 255 kts | 153° |
| 2026-05-08 17:59 | 39.01284 | 15.93597 | 4388 ft | 247 kts | 152° |
| 2026-05-08 17:59 | 38.99825 | 15.94695 | 4271 ft | 240 kts | 152° |
| 2026-05-08 17:59 | 38.98393 | 15.95770 | 4098 ft | 238 kts | 152° |
| 2026-05-08 17:59 | 38.96968 | 15.96839 | 3902 ft | 235 kts | 152° |
| 2026-05-08 18:00 | 38.95579 | 15.97882 | 3681 ft | 228 kts | 152° |
| 2026-05-08 18:00 | 38.93338 | 16.00406 | 3192 ft | 218 kts | 105° |
| 2026-05-08 18:00 | 38.93061 | 16.02257 | 3066 ft | 207 kts | 97° |
| 2026-05-08 18:01 | 38.92857 | 16.04059 | 2848 ft | 201 kts | 98° |
| 2026-05-08 18:01 | 38.92660 | 16.05809 | 2633 ft | 195 kts | 97° |
| 2026-05-08 18:01 | 38.92469 | 16.07525 | 2387 ft | 192 kts | 98° |
| 2026-05-08 18:01 | 38.92277 | 16.09213 | 2135 ft | 189 kts | 98° |
| 2026-05-08 18:02 | 38.92085 | 16.10882 | 1884 ft | 187 kts | 98° |
| 2026-05-08 18:02 | 38.91960 | 16.11975 | 1716 ft | 187 kts | 99° |
| 2026-05-08 18:02 | 38.91713 | 16.14124 | 1398 ft | 179 kts | 98° |
| 2026-05-08 18:02 | 38.91538 | 16.15635 | 1235 ft | 170 kts | 99° |
| 2026-05-08 18:03 | 38.91362 | 16.17152 | 986 ft | 172 kts | 99° |
| 2026-05-08 18:03 | 38.91189 | 16.18644 | 735 ft | 167 kts | 100° |
| 2026-05-08 18:03 | 38.91012 | 16.20087 | 517 ft | 160 kts | 100° |
| 2026-05-08 18:03 | 38.90859 | 16.21489 | 312 ft | 157 kts | 98° |
| 2026-05-08 18:04 | 38.90699 | 16.22869 | 82 ft | 156 kts | 98° |
| 2026-05-08 18:04 | 38.90546 | 16.24181 | 29 ft | 133 kts | 99° |
| 2026-05-08 18:04 | 38.90442 | 16.25076 | 40 ft | 70 kts | 98° |
| 2026-05-08 18:04 | 38.90403 | 16.25405 | 41 ft | 23 kts | 98° |
| 2026-05-08 18:05 | 38.90403 | 16.25538 | 42 ft | 12 kts | 53° |
| 2026-05-08 18:05 | 38.90489 | 16.25542 | 41 ft | 15 kts | 327° |
| 2026-05-08 18:05 | 38.90570 | 16.25459 | 41 ft | 15 kts | 312° |
| 2026-05-08 18:05 | 38.90628 | 16.25355 | 40 ft | 12 kts | 304° |
| 2026-05-08 18:06 | 38.90660 | 16.25313 | 40 ft | 7 kts | 320° |
| 2026-05-08 18:06 | 38.90695 | 16.25275 | 40 ft | 6 kts | 319° |
| 2026-05-08 18:06 | 38.90717 | 16.25231 | 39 ft | 4 kts | 294° |
| 2026-05-08 18:06 | 38.90726 | 16.25184 | 39 ft | 7 kts | 280° |
| 2026-05-08 18:07 | 38.90735 | 16.25115 | 39 ft | 9 kts | 278° |
| 2026-05-08 18:07 | 38.90744 | 16.25025 | 38 ft | 11 kts | 278° |
| 2026-05-08 18:07 | 38.90756 | 16.24920 | 36 ft | 12 kts | 278° |
| 2026-05-08 18:07 | 38.90770 | 16.24802 | 35 ft | 14 kts | 278° |
| 2026-05-08 18:08 | 38.90781 | 16.24708 | 36 ft | 0 kts | 278° |
| 2026-05-08 18:08 | 38.90784 | 16.24683 | 33 ft | 2 kts | 278° |
| 2026-05-08 18:08 | 38.90808 | 16.24661 | 35 ft | 6 kts | 21° |
| 2026-05-08 18:08 | 38.90835 | 16.24671 | 35 ft | 3 kts | 14° |
| 2026-05-08 18:09 | 38.90850 | 16.24675 | 35 ft | 1 kts | 11° |
| 2026-05-08 18:09 | 38.90852 | 16.24676 | 35 ft | 0 kts | 11° |